Time;durP1;ratioP1;P1;durP2;ratioP2;P2;SDS_P1;SDS_P2;PMS_P1;PMS_P2;Temp;Humidity;BMP_temperature;BMP_pressure;BME280_temperature;BME280_humidity;BME280_pressure;Samples;Min_cycle;Max_cycle;Signal;HPM_P1;HPM_P2
2021/10/01 00:01:11;;;;;;;1.38;0.90;;;10.30;1.00;;;;;;4880075;29;20075;-78
2021/10/01 00:03:37;;;;;;;2.72;1.00;;;10.20;1.00;;;;;;4880165;29;20053;-78
2021/10/01 00:06:03;;;;;;;2.38;0.77;;;10.20;1.00;;;;;;4880147;29;20048;-78
2021/10/01 00:08:29;;;;;;;2.70;0.80;;;10.20;1.00;;;;;;4879101;29;20041;-78
2021/10/01 00:10:57;;;;;;;1.77;0.80;;;10.00;1.00;;;;;;4884488;29;20060;-79
2021/10/01 00:13:23;;;;;;;1.27;0.77;;;10.20;1.00;;;;;;4884349;29;20036;-78
2021/10/01 00:15:49;;;;;;;2.67;1.02;;;10.20;1.00;;;;;;4882583;29;20084;-79
2021/10/01 00:18:15;;;;;;;2.22;0.75;;;10.10;1.00;;;;;;4884834;29;20040;-78
2021/10/01 00:20:42;;;;;;;2.22;1.42;;;10.10;1.00;;;;;;4884259;29;20053;-79
2021/10/01 00:23:07;;;;;;;3.10;1.05;;;10.10;1.00;;;;;;4867828;29;20052;-78
2021/10/01 00:25:33;;;;;;;1.10;0.80;;;10.10;1.00;;;;;;4883852;29;20385;-78
2021/10/01 00:27:59;;;;;;;2.03;0.80;;;10.10;1.00;;;;;;4884064;29;20048;-79
2021/10/01 00:30:25;;;;;;;3.08;0.93;;;10.00;1.00;;;;;;4883866;29;20572;-78
2021/10/01 00:32:52;;;;;;;2.42;0.85;;;9.90;1.00;;;;;;4884023;29;20056;-79
2021/10/01 00:35:19;;;;;;;1.50;0.80;;;9.90;1.00;;;;;;4883749;29;20049;-78
2021/10/01 00:37:45;;;;;;;1.80;0.93;;;9.90;1.00;;;;;;4884508;29;20041;-79
2021/10/01 00:40:11;;;;;;;3.42;1.00;;;9.90;1.00;;;;;;4883573;29;20156;-79
2021/10/01 00:42:38;;;;;;;6.03;1.05;;;9.80;1.00;;;;;;4866923;29;20140;-79
2021/10/01 00:45:05;;;;;;;3.58;0.90;;;9.80;1.00;;;;;;4882543;29;20037;-79
2021/10/01 00:47:31;;;;;;;2.35;0.70;;;9.70;1.00;;;;;;4883388;29;20049;-78
2021/10/01 00:49:57;;;;;;;1.88;0.90;;;9.70;1.00;;;;;;4867220;29;20382;-78
2021/10/01 00:52:23;;;;;;;2.80;0.88;;;9.70;1.00;;;;;;4883623;29;20041;-78
2021/10/01 00:54:49;;;;;;;1.75;0.93;;;9.60;1.00;;;;;;4883483;29;20045;-79
2021/10/01 00:57:16;;;;;;;2.80;0.90;;;9.60;1.00;;;;;;4884153;29;20071;-78
2021/10/01 00:59:42;;;;;;;2.83;0.90;;;9.60;1.00;;;;;;4883533;29;20061;-78
2021/10/01 01:02:08;;;;;;;1.27;0.70;;;9.50;1.00;;;;;;4883333;29;20048;-79
2021/10/01 01:04:34;;;;;;;2.22;0.82;;;9.50;1.00;;;;;;4883482;29;20041;-78
2021/10/01 01:07:11;;;;;;;3.88;1.08;;;9.40;1.00;;;;;;4883760;29;20116;-78
2021/10/01 01:10:02;;;;;;;1.48;0.80;;;9.40;1.00;;;;;;4883463;29;20061;-78
2021/10/01 01:12:46;;;;;;;2.42;0.70;;;9.40;1.00;;;;;;4882784;29;20079;-78
2021/10/01 01:15:22;;;;;;;1.65;0.80;;;9.30;1.00;;;;;;4866030;29;20079;-79
2021/10/01 01:17:54;;;;;;;1.38;0.80;;;9.30;1.00;;;;;;4881337;29;20037;-79
2021/10/01 01:20:50;;;;;;;1.95;0.82;;;9.30;1.00;;;;;;4881928;29;20145;-79
2021/10/01 01:23:27;;;;;;;2.72;0.70;;;9.30;1.00;;;;;;4883127;29;20052;-79
2021/10/01 01:26:11;;;;;;;3.33;0.75;;;9.20;1.00;;;;;;4882592;29;20105;-79
2021/10/01 01:29:07;;;;;;;1.38;0.80;;;9.30;1.00;;;;;;4865754;29;20037;-79
2021/10/01 01:31:47;;;;;;;1.13;0.80;;;9.30;1.00;;;;;;4882514;29;20044;-79
2021/10/01 01:34:36;;;;;;;1.63;0.80;;;9.20;1.00;;;;;;4882359;29;20404;-79
2021/10/01 01:37:08;;;;;;;3.90;1.10;;;9.20;1.00;;;;;;4866360;29;20067;-79
2021/10/01 01:39:36;;;;;;;2.50;0.80;;;9.30;1.00;;;;;;4881036;29;20033;-78
2021/10/01 01:42:03;;;;;;;1.35;0.85;;;9.20;1.00;;;;;;4882416;29;20057;-79
2021/10/01 01:44:30;;;;;;;4.32;0.80;;;9.10;1.00;;;;;;4881151;29;20173;-79
2021/10/01 01:46:58;;;;;;;3.22;0.80;;;9.10;1.00;;;;;;4881950;29;20048;-79
2021/10/01 01:49:25;;;;;;;1.23;0.60;;;9.20;1.00;;;;;;4865838;29;20493;-79
2021/10/01 01:51:52;;;;;;;2.05;0.80;;;9.10;1.00;;;;;;4882356;29;20049;-79
2021/10/01 01:54:20;;;;;;;6.70;1.05;;;9.10;1.00;;;;;;4865447;29;20068;-79
2021/10/01 01:56:47;;;;;;;2.05;0.90;;;9.10;1.00;;;;;;4882494;29;20504;-79
2021/10/01 01:59:14;;;;;;;2.28;1.13;;;9.10;1.00;;;;;;4882676;29;20041;-79
2021/10/01 02:01:41;;;;;;;1.95;0.70;;;9.00;1.00;;;;;;4880705;29;20037;-79
2021/10/01 02:04:09;;;;;;;0.60;0.60;;;9.00;1.00;;;;;;4882343;29;20560;-79
2021/10/01 02:06:35;;;;;;;2.05;0.95;;;8.90;1.00;;;;;;4881806;29;20049;-79
2021/10/01 02:09:02;;;;;;;1.67;1.00;;;8.80;1.00;;;;;;4882074;29;20049;-79
2021/10/01 02:11:30;;;;;;;1.83;0.80;;;8.80;1.00;;;;;;4880748;29;20123;-78
2021/10/01 02:13:57;;;;;;;2.13;0.85;;;8.80;1.00;;;;;;4882195;29;20068;-79
2021/10/01 02:16:26;;;;;;;1.58;0.90;;;8.80;1.00;;;;;;4880724;29;20033;-79
2021/10/01 02:18:54;;;;;;;1.63;0.65;;;8.80;1.00;;;;;;4882021;29;20200;-79
2021/10/01 02:21:22;;;;;;;1.08;0.70;;;8.70;1.00;;;;;;4881845;29;20044;-78
2021/10/01 02:23:49;;;;;;;3.67;0.85;;;8.80;1.00;;;;;;4881952;29;20052;-79
2021/10/01 02:26:35;;;;;;;1.88;0.88;;;8.80;1.00;;;;;;4865200;29;20032;-79
2021/10/01 02:29:34;;;;;;;2.92;0.88;;;8.70;1.00;;;;;;4880447;29;20489;-79
2021/10/01 02:32:17;;;;;;;1.83;0.85;;;8.70;1.00;;;;;;4864446;29;20073;-79
2021/10/01 02:34:46;;;;;;;1.63;0.88;;;8.70;1.00;;;;;;4882040;29;20041;-79
2021/10/01 02:37:13;;;;;;;1.40;0.77;;;8.70;1.00;;;;;;4882116;29;20086;-79
2021/10/01 02:39:42;;;;;;;1.90;0.90;;;8.60;1.00;;;;;;4881737;29;20077;-79
2021/10/01 02:42:10;;;;;;;2.13;0.60;;;8.60;1.00;;;;;;4882170;29;20049;-79
2021/10/01 02:44:37;;;;;;;5.63;0.90;;;8.50;1.00;;;;;;4881984;29;20037;-78
2021/10/01 02:47:04;;;;;;;1.30;0.60;;;8.50;1.00;;;;;;4881548;29;20060;-78
2021/10/01 02:49:30;;;;;;;1.27;0.90;;;8.50;1.00;;;;;;4881794;29;20041;-79
2021/10/01 02:51:59;;;;;;;3.45;3.25;;;8.60;1.00;;;;;;4881581;29;20036;-78
2021/10/01 02:54:55;;;;;;;4.70;4.40;;;8.60;1.00;;;;;;4881700;29;20108;-78
2021/10/01 02:57:24;;;;;;;1.63;1.52;;;8.50;1.00;;;;;;4881232;29;20483;-78
2021/10/01 02:59:53;;;;;;;2.22;0.70;;;8.60;1.00;;;;;;4881179;29;20076;-78
2021/10/01 03:02:22;;;;;;;3.08;1.50;;;8.40;1.00;;;;;;4881224;29;20049;-78
2021/10/01 03:04:51;;;;;;;1.70;1.00;;;8.40;1.00;;;;;;4881359;29;20052;-79
2021/10/01 03:07:18;;;;;;;2.20;1.00;;;8.40;1.00;;;;;;4879876;29;20040;-78
2021/10/01 03:09:48;;;;;;;1.75;0.90;;;8.50;1.00;;;;;;4880804;29;20057;-79
2021/10/01 03:12:17;;;;;;;2.42;1.00;;;8.40;1.00;;;;;;4864048;29;20044;-78
2021/10/01 03:14:43;;;;;;;2.45;1.00;;;8.40;1.00;;;;;;4880933;29;20037;-78
2021/10/01 03:17:09;;;;;;;1.10;0.70;;;8.30;1.00;;;;;;4864557;29;20041;-78
2021/10/01 03:19:36;;;;;;;1.00;0.90;;;8.30;1.00;;;;;;4879569;29;20397;-79
2021/10/01 03:22:04;;;;;;;2.85;1.15;;;8.30;1.00;;;;;;4879533;29;20539;-79
2021/10/01 03:24:30;;;;;;;1.90;0.98;;;8.30;1.00;;;;;;4880804;29;20045;-78
2021/10/01 03:26:57;;;;;;;2.25;0.93;;;8.30;1.00;;;;;;4881341;29;20045;-78
2021/10/01 03:29:23;;;;;;;1.45;0.93;;;8.30;1.00;;;;;;4879246;29;20037;-79
2021/10/01 03:31:50;;;;;;;1.42;0.80;;;8.20;1.00;;;;;;4880334;29;20095;-79
2021/10/01 03:34:16;;;;;;;3.58;0.90;;;8.10;1.00;;;;;;4879514;29;20041;-79
2021/10/01 03:36:44;;;;;;;1.10;0.73;;;8.10;1.00;;;;;;4880715;29;20131;-78
2021/10/01 03:39:11;;;;;;;1.60;0.80;;;8.10;1.00;;;;;;4880956;29;20049;-78
2021/10/01 03:41:37;;;;;;;2.70;1.00;;;8.00;1.00;;;;;;4863964;29;20089;-78
2021/10/01 03:44:04;;;;;;;4.18;0.90;;;8.00;1.00;;;;;;4881686;29;20052;-78
2021/10/01 03:46:30;;;;;;;2.90;0.98;;;8.00;1.00;;;;;;4883088;29;20044;-78
2021/10/01 03:48:56;;;;;;;1.92;0.98;;;7.90;1.00;;;;;;4884338;29;20136;-79
2021/10/01 03:51:25;;;;;;;2.17;0.80;;;8.00;1.00;;;;;;4884467;29;20127;-79
2021/10/01 03:53:53;;;;;;;4.15;1.00;;;7.90;1.00;;;;;;4884163;29;20570;-79
2021/10/01 03:56:19;;;;;;;1.88;0.88;;;7.80;1.00;;;;;;4883097;29;20037;-78
2021/10/01 03:58:49;;;;;;;2.05;0.85;;;7.90;1.00;;;;;;4884663;29;20527;-79
2021/10/01 04:01:16;;;;;;;2.92;1.13;;;7.90;1.00;;;;;;4886029;29;20040;-78
2021/10/01 04:03:41;;;;;;;1.25;0.90;;;7.80;1.00;;;;;;4885902;29;20049;-78
2021/10/01 04:06:07;;;;;;;2.50;0.80;;;7.80;1.00;;;;;;4884953;29;20048;-78
2021/10/01 04:08:33;;;;;;;1.70;0.90;;;7.90;1.00;;;;;;4901943;29;20041;-78
2021/10/01 04:11:00;;;;;;;1.75;0.80;;;7.80;1.00;;;;;;4902394;29;20096;-77
2021/10/01 04:13:26;;;;;;;3.83;1.00;;;7.70;1.00;;;;;;4894141;29;20497;-78
2021/10/01 04:15:52;;;;;;;2.80;0.80;;;7.80;1.00;;;;;;4884909;29;20044;-78
2021/10/01 04:18:18;;;;;;;7.68;1.58;;;7.80;1.00;;;;;;4886793;29;20056;-78
2021/10/01 04:20:45;;;;;;;2.17;0.95;;;7.70;1.00;;;;;;4885144;29;20055;-78
2021/10/01 04:23:12;;;;;;;2.78;1.10;;;7.70;1.00;;;;;;4884349;29;20139;-79
2021/10/01 04:25:38;;;;;;;2.85;0.82;;;7.60;1.00;;;;;;4889087;29;20404;-79
2021/10/01 04:28:08;;;;;;;3.17;0.90;;;7.70;1.00;;;;;;4892215;29;20041;-79
2021/10/01 04:30:53;;;;;;;7.63;1.17;;;7.70;1.00;;;;;;4889579;29;20043;-74
2021/10/01 04:33:24;;;;;;;3.92;1.20;;;7.70;1.00;;;;;;4893112;29;20037;-75
2021/10/01 04:35:50;;;;;;;2.05;0.95;;;7.70;1.00;;;;;;4879803;29;20109;-75
2021/10/01 04:38:22;;;;;;;2.17;0.90;;;7.80;1.00;;;;;;4898734;29;20060;-76
2021/10/01 04:40:49;;;;;;;1.15;0.80;;;7.70;1.00;;;;;;4901866;29;20489;-77
2021/10/01 04:43:15;;;;;;;1.98;0.77;;;7.70;1.00;;;;;;4902215;29;20053;-77
2021/10/01 04:45:40;;;;;;;2.05;0.95;;;7.60;1.00;;;;;;4902107;29;20040;-77
2021/10/01 04:48:07;;;;;;;1.98;0.80;;;7.50;1.00;;;;;;4902381;29;20048;-77
2021/10/01 04:50:34;;;;;;;2.03;1.00;;;7.60;1.00;;;;;;4901868;29;20041;-77
2021/10/01 04:53:00;;;;;;;1.80;0.80;;;7.50;1.00;;;;;;4901250;29;20040;-77
2021/10/01 04:55:27;;;;;;;3.40;0.90;;;7.50;1.00;;;;;;4900445;29;20044;-77
2021/10/01 04:57:54;;;;;;;2.83;0.77;;;7.40;1.00;;;;;;4901106;29;20051;-77
2021/10/01 05:00:20;;;;;;;1.13;0.70;;;7.50;1.00;;;;;;4900451;29;20041;-77
2021/10/01 05:02:46;;;;;;;1.73;0.80;;;7.50;1.00;;;;;;4900572;29;20135;-77
2021/10/01 05:05:12;;;;;;;2.15;0.77;;;7.40;1.00;;;;;;4900891;29;20492;-77
2021/10/01 05:07:38;;;;;;;7.25;1.25;;;7.30;1.00;;;;;;4900809;29;20104;-77
2021/10/01 05:10:07;;;;;;;1.67;0.85;;;7.50;1.00;;;;;;4901990;29;20143;-77
2021/10/01 05:12:34;;;;;;;3.05;0.80;;;7.30;1.00;;;;;;4902327;29;20049;-77
2021/10/01 05:14:59;;;;;;;1.75;0.80;;;7.20;1.00;;;;;;4902024;29;20068;-77
2021/10/01 05:17:25;;;;;;;1.17;0.90;;;7.20;1.00;;;;;;4885549;29;20068;-77
2021/10/01 05:19:51;;;;;;;2.75;0.90;;;7.20;1.00;;;;;;4901756;29;20075;-77
2021/10/01 05:22:18;;;;;;;1.95;0.70;;;7.30;1.00;;;;;;4902079;29;20107;-77
2021/10/01 05:24:44;;;;;;;3.17;0.50;;;7.30;1.00;;;;;;4900935;29;20083;-77
2021/10/01 05:27:11;;;;;;;1.23;0.80;;;7.30;1.00;;;;;;4900088;29;20508;-77
2021/10/01 05:29:37;;;;;;;3.13;0.80;;;7.40;1.00;;;;;;4900540;29;20055;-77
2021/10/01 05:32:03;;;;;;;2.40;0.88;;;7.60;1.00;;;;;;4896593;29;20148;-77
2021/10/01 05:34:29;;;;;;;2.55;0.65;;;7.60;1.00;;;;;;4889765;29;20044;-77
2021/10/01 05:36:56;;;;;;;1.25;0.90;;;7.40;1.00;;;;;;4879231;29;20045;-77
2021/10/01 05:39:22;;;;;;;5.47;1.10;;;7.20;1.00;;;;;;4883394;29;20127;-77
2021/10/01 05:41:48;;;;;;;2.10;0.80;;;7.10;1.00;;;;;;4881954;29;20609;-77
2021/10/01 05:44:13;;;;;;;3.08;0.73;;;7.10;1.00;;;;;;4882055;29;20045;-77
2021/10/01 05:46:45;;;;;;;1.98;1.13;;;7.00;1.00;;;;;;4882051;29;20044;-77
2021/10/01 05:49:14;;;;;;;;;;;7.00;1.00;;;;;;4882789;29;20056;-77
2021/10/01 05:51:47;;;;;;;0.85;0.65;;;7.00;1.00;;;;;;4882894;29;20002;-77
2021/10/01 05:54:21;;;;;;;3.17;1.00;;;7.00;1.00;;;;;;4881981;29;20041;-77
2021/10/01 05:56:51;;;;;;;0.88;0.65;;;7.10;1.00;;;;;;4881175;29;20037;-75
2021/10/01 05:59:20;;;;;;;0.98;0.70;;;7.00;1.00;;;;;;4882208;29;20069;-77
2021/10/01 06:01:47;;;;;;;1.90;0.80;;;7.10;1.00;;;;;;4882466;29;20051;-77
2021/10/01 06:04:14;;;;;;;3.28;0.82;;;7.10;1.00;;;;;;4882065;29;20037;-77
2021/10/01 06:06:40;;;;;;;7.22;1.10;;;7.00;1.00;;;;;;4881678;29;20041;-77
2021/10/01 06:09:11;;;;;;;3.25;0.85;;;7.10;1.00;;;;;;4881673;29;20091;-74
2021/10/01 06:11:39;;;;;;;1.15;1.05;;;7.20;1.00;;;;;;4882218;29;20045;-75
2021/10/01 06:14:06;;;;;;;2.85;0.85;;;7.10;1.00;;;;;;4881413;29;20060;-77
2021/10/01 06:16:32;;;;;;;2.65;0.70;;;7.00;1.00;;;;;;4881739;29;20109;-73
2021/10/01 06:18:59;;;;;;;2.53;0.95;;;7.10;1.00;;;;;;4881882;29;20056;-77
2021/10/01 06:21:25;;;;;;;4.20;1.20;;;7.10;1.00;;;;;;4881875;29;20045;-77
2021/10/01 06:23:51;;;;;;;2.90;0.80;;;7.10;1.00;;;;;;4881278;29;20108;-77
2021/10/01 06:26:16;;;;;;;2.75;0.80;;;7.20;1.00;;;;;;4881481;29;20140;-76
2021/10/01 06:28:42;;;;;;;0.93;0.70;;;7.30;1.00;;;;;;4881987;29;20044;-77
2021/10/01 06:31:08;;;;;;;4.22;1.08;;;7.40;1.00;;;;;;4881872;29;20398;-77
2021/10/01 06:33:35;;;;;;;2.58;0.75;;;7.30;1.00;;;;;;4881608;29;20055;-77
2021/10/01 06:36:01;;;;;;;1.65;0.70;;;7.20;1.00;;;;;;4881497;29;20041;-77
2021/10/01 06:38:30;;;;;;;0.90;0.70;;;7.30;1.00;;;;;;4881201;29;20041;-77
2021/10/01 06:40:57;;;;;;;1.85;1.00;;;7.30;1.00;;;;;;4881430;29;20039;-77
2021/10/01 06:43:24;;;;;;;1.15;0.65;;;7.40;1.00;;;;;;4881102;29;20605;-77
2021/10/01 06:45:55;;;;;;;4.10;0.88;;;7.50;1.00;;;;;;4881554;29;20061;-77
2021/10/01 06:51:35;;;;;;;3.30;1.00;;;7.60;1.00;;;;;;4880856;29;20573;-77
2021/10/01 07:35:53;;;;;;;1.40;0.90;;;8.60;1.00;;;;;;4880703;29;20450;-76
2021/10/01 08:19:30;;;;;;;1.10;0.88;;;10.00;1.00;;;;;;4897550;29;20048;-77
2021/10/01 08:21:58;;;;;;;1.02;0.93;;;10.20;1.00;;;;;;4880447;29;20048;-77
2021/10/01 08:24:25;;;;;;;1.33;1.02;;;10.40;1.00;;;;;;4897275;29;20040;-77
2021/10/01 08:26:51;;;;;;;3.15;1.20;;;10.60;1.00;;;;;;4898800;29;20043;-77
2021/10/01 08:29:19;;;;;;;3.33;1.50;;;10.70;1.00;;;;;;4899235;29;20072;-77
2021/10/01 08:31:45;;;;;;;3.38;1.15;;;10.80;1.00;;;;;;4902634;29;20041;-77
2021/10/01 08:34:12;;;;;;;2.75;1.00;;;11.00;1.00;;;;;;4902680;29;20143;-77
2021/10/01 08:36:38;;;;;;;2.10;1.10;;;11.10;1.00;;;;;;4902374;29;20112;-77
2021/10/01 08:39:06;;;;;;;3.85;1.10;;;11.20;1.00;;;;;;4902392;29;20064;-78
2021/10/01 08:41:33;;;;;;;4.20;1.40;;;11.30;1.00;;;;;;4904577;29;20543;-76
2021/10/01 08:43:59;;;;;;;3.00;1.55;;;11.30;1.00;;;;;;4903631;29;20080;-76
2021/10/01 08:46:26;;;;;;;3.28;1.13;;;11.40;1.00;;;;;;4900342;29;20551;-76
2021/10/01 08:48:53;;;;;;;1.23;0.98;;;11.60;1.00;;;;;;4895278;29;20057;-76
2021/10/01 08:51:19;;;;;;;4.40;1.08;;;12.00;1.00;;;;;;4892315;29;20044;-77
2021/10/01 08:53:47;;;;;;;1.75;0.60;;;12.40;1.00;;;;;;4897360;29;20053;-79
2021/10/01 08:56:13;;;;;;;7.00;1.02;;;12.70;1.00;;;;;;4901473;29;20043;-78
2021/10/01 08:58:39;;;;;;;2.90;0.80;;;12.80;1.00;;;;;;4901833;29;20123;-77
2021/10/01 09:01:05;;;;;;;2.97;1.00;;;13.00;1.00;;;;;;4899683;29;20568;-79
2021/10/01 09:03:31;;;;;;;4.10;0.93;;;13.00;1.00;;;;;;4899228;29;20057;-78
2021/10/01 09:05:57;;;;;;;2.85;0.82;;;13.10;1.00;;;;;;4900525;29;20123;-78
2021/10/01 09:08:25;;;;;;;2.60;1.00;;;13.00;1.00;;;;;;4901690;29;20076;-78
2021/10/01 09:11:03;;;;;;;3.60;1.25;;;13.20;1.00;;;;;;4900181;29;20143;-79
2021/10/01 09:13:30;;;;;;;6.10;1.10;;;13.20;1.00;;;;;;4901068;29;20040;-78
2021/10/01 09:16:01;;;;;;;3.47;1.13;;;13.30;1.00;;;;;;4900656;29;20032;-79
2021/10/01 09:18:30;;;;;;;2.50;0.95;;;13.40;1.00;;;;;;4900620;29;20156;-79
2021/10/01 09:21:20;;;;;;;3.92;0.95;;;13.40;1.00;;;;;;4899938;29;20036;-80
2021/10/01 09:23:54;;;;;;;1.85;0.77;;;13.40;1.00;;;;;;4900502;29;20060;-78
2021/10/01 09:26:22;;;;;;;2.22;0.75;;;13.60;1.00;;;;;;4900928;29;20062;-80
2021/10/01 09:28:53;;;;;;;3.92;1.08;;;13.80;1.00;;;;;;4901187;29;20048;-80
2021/10/01 09:31:37;;;;;;;;;;;13.80;1.00;;;;;;4900984;29;20040;-79
2021/10/01 09:34:06;;;;;;;6.90;1.35;;;13.60;1.00;;;;;;4900223;29;20363;-79
2021/10/01 09:36:32;;;;;;;4.70;1.10;;;13.60;1.00;;;;;;4898674;29;20044;-80
2021/10/01 09:38:59;;;;;;;2.65;1.10;;;13.70;1.00;;;;;;4899433;29;20037;-79
2021/10/01 09:41:26;;;;;;;4.97;1.13;;;13.90;1.00;;;;;;4899566;29;20087;-80
2021/10/01 09:44:03;;;;;;;2.42;1.20;;;14.10;1.00;;;;;;4898936;29;20051;-79
2021/10/01 09:46:42;;;;;;;3.20;0.98;;;14.10;1.00;;;;;;4900516;29;20051;-78
2021/10/01 09:49:09;;;;;;;1.65;0.90;;;14.30;1.00;;;;;;4900314;29;20056;-78
2021/10/01 09:51:37;;;;;;;4.25;1.20;;;14.40;1.00;;;;;;4899251;29;20044;-78
2021/10/01 09:54:12;;;;;;;2.38;0.90;;;14.60;1.00;;;;;;4900436;29;20040;-78
2021/10/01 09:56:39;;;;;;;2.47;0.80;;;14.40;1.00;;;;;;4899905;29;20051;-78
2021/10/01 09:59:19;;;;;;;2.70;1.20;;;14.40;1.00;;;;;;4883637;29;20104;-78
2021/10/01 10:02:13;;;;;;;2.10;1.02;;;14.80;1.00;;;;;;4900131;29;20076;-79
2021/10/01 10:04:55;;;;;;;2.00;0.90;;;14.60;1.00;;;;;;4899075;29;20049;-78
2021/10/01 10:07:25;;;;;;;3.35;0.93;;;14.70;1.00;;;;;;4899738;29;20032;-78
2021/10/01 10:10:06;;;;;;;2.63;0.90;;;14.80;1.00;;;;;;4899486;29;20069;-79
2021/10/01 10:12:35;;;;;;;0.88;0.80;;;14.70;1.00;;;;;;4900425;29;20045;-78
2021/10/01 10:15:08;;;;;;;1.60;1.10;;;14.80;1.00;;;;;;4901770;29;20123;-78
2021/10/01 10:17:34;;;;;;;2.40;1.20;;;14.80;1.00;;;;;;4887320;29;20386;-78
2021/10/01 10:20:02;;;;;;;2.08;1.20;;;14.90;1.00;;;;;;4899226;29;20033;-78
2021/10/01 10:22:30;;;;;;;4.68;1.02;;;14.70;1.00;;;;;;4899390;29;20108;-78
2021/10/01 10:24:56;;;;;;;4.85;1.30;;;14.70;1.00;;;;;;4899199;29;20127;-78
2021/10/01 10:27:24;;;;;;;3.53;1.20;;;14.60;1.00;;;;;;4899163;29;20124;-78
2021/10/01 10:29:52;;;;;;;1.88;1.05;;;14.80;1.00;;;;;;4899730;29;20040;-79
2021/10/01 10:32:22;;;;;;;2.17;1.00;;;15.10;1.00;;;;;;4899447;29;20390;-78
2021/10/01 10:34:52;;;;;;;5.68;1.50;;;15.80;1.00;;;;;;4898883;29;20131;-77
2021/10/01 10:37:19;;;;;;;4.00;1.40;;;16.20;1.00;;;;;;4880756;29;20552;-78
2021/10/01 10:39:51;;;;;;;3.15;1.05;;;16.40;1.00;;;;;;4898192;29;20037;-78
2021/10/01 10:42:28;;;;;;;2.00;1.00;;;16.10;1.00;;;;;;4881768;29;20083;-78
2021/10/01 10:44:57;;;;;;;2.30;0.93;;;16.00;1.00;;;;;;4898384;29;20041;-77
2021/10/01 10:47:56;;;;;;;1.40;0.82;;;16.50;1.00;;;;;;4899066;29;20592;-78
2021/10/01 10:50:25;;;;;;;2.63;1.15;;;16.70;1.00;;;;;;4898631;29;20147;-79
2021/10/01 10:53:13;;;;;;;2.65;1.08;;;16.80;1.00;;;;;;4897574;29;20048;-78
2021/10/01 10:55:59;;;;;;;3.30;1.10;;;17.20;1.00;;;;;;4882649;29;20049;-78
2021/10/01 10:58:25;;;;;;;3.90;1.08;;;17.30;1.00;;;;;;4897739;29;20040;-78
2021/10/01 11:01:15;;;;;;;2.92;1.15;;;17.20;1.00;;;;;;4894988;29;20048;-79
2021/10/01 11:03:41;;;;;;;1.60;1.05;;;17.40;1.00;;;;;;4897644;29;20092;-78
2021/10/01 11:06:10;;;;;;;0.95;0.90;;;17.60;1.00;;;;;;4897602;29;20032;-77
2021/10/01 11:08:36;;;;;;;3.35;1.15;;;17.80;1.00;;;;;;4898937;29;20090;-78
2021/10/01 11:11:03;;;;;;;2.38;0.88;;;17.70;1.00;;;;;;4898558;29;20048;-78
2021/10/01 11:13:31;;;;;;;1.35;0.98;;;17.60;1.00;;;;;;4895779;29;20073;-78
2021/10/01 11:16:09;;;;;;;14.15;1.35;;;17.40;1.00;;;;;;4899303;29;20052;-78
2021/10/01 11:21:28;;;;;;;2.63;1.17;;;17.20;1.00;;;;;;4896896;29;20029;-78
2021/10/01 11:24:02;;;;;;;1.00;0.80;;;17.30;1.00;;;;;;4897204;29;20059;-78
2021/10/01 11:26:33;;;;;;;2.50;1.00;;;17.80;1.00;;;;;;4899190;29;20048;-78
2021/10/01 11:29:00;;;;;;;3.67;0.88;;;17.70;1.00;;;;;;4882082;29;20040;-78
2021/10/01 11:31:41;;;;;;;1.00;0.90;;;17.60;1.00;;;;;;4898895;29;20059;-78
2021/10/01 11:34:08;;;;;;;2.72;1.10;;;17.50;1.00;;;;;;4899642;29;20550;-78
2021/10/01 11:36:39;;;;;;;3.55;1.00;;;17.40;1.00;;;;;;4899424;29;20488;-78
2021/10/01 11:39:12;;;;;;;3.78;1.20;;;17.40;1.00;;;;;;4899406;29;20471;-78
2021/10/01 11:41:47;;;;;;;2.45;1.10;;;17.30;1.00;;;;;;4899964;29;20036;-78
2021/10/01 11:44:15;;;;;;;2.05;1.17;;;17.30;1.00;;;;;;4899803;29;20053;-78
2021/10/01 11:46:47;;;;;;;1.98;0.93;;;17.60;1.00;;;;;;4899470;29;20572;-79
2021/10/01 11:49:19;;;;;;;3.10;1.20;;;17.80;1.00;;;;;;4900018;29;20076;-78
2021/10/01 11:52:09;;;;;;;2.15;1.05;;;17.50;1.00;;;;;;4899386;29;20044;-78
2021/10/01 11:54:36;;;;;;;4.47;1.25;;;17.50;1.00;;;;;;4899208;29;20096;-78
2021/10/01 11:57:08;;;;;;;1.88;1.02;;;17.60;1.00;;;;;;4899620;29;20043;-78
2021/10/01 11:59:57;;;;;;;4.32;1.40;;;17.60;1.00;;;;;;4899873;29;20072;-78
2021/10/01 12:02:34;;;;;;;2.65;1.30;;;17.50;1.00;;;;;;4899317;29;20048;-78
2021/10/01 12:05:17;;;;;;;2.80;1.55;;;17.60;1.00;;;;;;4883383;29;20048;-78
2021/10/01 12:07:50;;;;;;;1.90;1.10;;;17.80;1.00;;;;;;4903567;29;20040;-79
2021/10/01 12:10:18;;;;;;;5.50;1.67;;;18.10;1.00;;;;;;4902715;29;20064;-79
2021/10/01 12:13:22;;;;;;;2.65;1.20;;;18.50;1.00;;;;;;4902589;29;20052;-79
2021/10/01 12:15:49;;;;;;;2.95;1.17;;;18.70;1.00;;;;;;4902497;29;20037;-78
2021/10/01 12:18:45;;;;;;;1.30;1.10;;;18.90;1.00;;;;;;4902378;29;20044;-78
2021/10/01 12:21:17;;;;;;;3.70;1.33;;;18.90;1.00;;;;;;4898163;29;20168;-78
2021/10/01 12:23:48;;;;;;;1.58;1.30;;;18.90;1.00;;;;;;4902977;29;20044;-78
2021/10/01 12:26:22;;;;;;;4.00;1.40;;;18.90;1.00;;;;;;4902620;29;20036;-76
2021/10/01 12:29:14;;;;;;;2.92;1.58;;;18.90;1.00;;;;;;4902942;29;20044;-76
2021/10/01 12:31:51;;;;;;;2.60;1.40;;;18.70;1.00;;;;;;4902078;29;20036;-76
2021/10/01 12:34:24;;;;;;;3.95;1.65;;;18.70;1.00;;;;;;4902991;29;20056;-77
2021/10/01 12:37:00;;;;;;;2.88;1.10;;;18.70;1.00;;;;;;4902200;29;20041;-77
2021/10/01 12:39:27;;;;;;;3.80;1.20;;;18.90;1.00;;;;;;4902542;29;20040;-76
2021/10/01 12:41:56;;;;;;;2.38;1.30;;;19.10;1.00;;;;;;4885404;29;20045;-77
2021/10/01 12:44:22;;;;;;;3.58;1.30;;;19.10;1.00;;;;;;4901884;29;20053;-76
2021/10/01 12:46:50;;;;;;;2.17;1.30;;;19.30;1.00;;;;;;4902133;29;20047;-76
2021/10/01 12:49:30;;;;;;;3.67;1.40;;;19.40;1.00;;;;;;4885734;29;20047;-77
2021/10/01 12:52:14;;;;;;;4.85;1.50;;;19.60;1.00;;;;;;4901883;29;20433;-77
2021/10/01 12:54:45;;;;;;;2.53;1.40;;;19.70;1.00;;;;;;4902124;29;20040;-76
2021/10/01 12:57:19;;;;;;;2.78;1.23;;;19.70;1.00;;;;;;4902430;29;20043;-77
2021/10/01 12:59:51;;;;;;;2.78;1.85;;;19.70;1.00;;;;;;4900244;29;20048;-76
2021/10/01 13:02:21;;;;;;;3.08;1.50;;;19.80;1.00;;;;;;4884541;29;20032;-76
2021/10/01 13:04:50;;;;;;;3.42;1.45;;;19.80;1.00;;;;;;4900464;29;20044;-76
2021/10/01 13:07:45;;;;;;;2.65;1.48;;;20.00;1.00;;;;;;4895273;29;20040;-76
2021/10/01 13:10:25;;;;;;;3.72;1.67;;;20.10;1.00;;;;;;4899854;29;20080;-75
2021/10/01 13:13:06;;;;;;;3.42;1.80;;;20.10;1.00;;;;;;4899624;29;20045;-76
2021/10/01 13:15:57;;;;;;;2.63;1.50;;;20.20;1.00;;;;;;4900636;29;20048;-76
2021/10/01 13:18:31;;;;;;;3.95;1.30;;;20.40;1.00;;;;;;4900424;29;20044;-76
2021/10/01 13:21:21;;;;;;;1.65;1.17;;;20.60;1.00;;;;;;4900040;29;20076;-76
2021/10/01 13:23:53;;;;;;;5.03;1.27;;;20.80;1.00;;;;;;4899910;29;20053;-76
2021/10/01 13:26:42;;;;;;;3.30;1.52;;;21.00;1.00;;;;;;4900715;29;20041;-76
2021/10/01 13:29:11;;;;;;;2.05;1.20;;;20.80;1.00;;;;;;4884026;29;20036;-76
2021/10/01 13:31:48;;;;;;;4.30;1.50;;;20.50;1.00;;;;;;4900246;29;20104;-76
2021/10/01 13:34:15;;;;;;;1.92;1.23;;;20.40;1.00;;;;;;4901023;29;20045;-77
2021/10/01 13:36:42;;;;;;;5.78;1.55;;;20.30;1.00;;;;;;4900255;29;20076;-77
2021/10/01 13:39:09;;;;;;;5.25;1.50;;;20.10;1.00;;;;;;4900805;29;20068;-77
2021/10/01 13:41:35;;;;;;;3.08;1.25;;;19.90;1.00;;;;;;4900390;29;20052;-76
2021/10/01 13:44:02;;;;;;;4.20;1.60;;;19.90;1.00;;;;;;4900572;29;20139;-77
2021/10/01 13:46:27;;;;;;;1.88;1.30;;;19.80;1.00;;;;;;4900071;29;20095;-76
2021/10/01 13:48:54;;;;;;;1.67;1.20;;;19.90;1.00;;;;;;4900281;29;20127;-76
2021/10/01 13:51:20;;;;;;;2.83;1.35;;;19.90;1.00;;;;;;4899717;29;20048;-76
2021/10/01 13:53:46;;;;;;;3.97;1.20;;;20.00;1.00;;;;;;4900303;29;20513;-75
2021/10/01 13:56:12;;;;;;;3.22;1.20;;;20.10;1.00;;;;;;4899725;29;20075;-76
2021/10/01 13:58:38;;;;;;;1.95;1.20;;;20.00;1.00;;;;;;4900150;29;20032;-76
2021/10/01 14:01:04;;;;;;;1.52;1.30;;;20.10;1.00;;;;;;4882656;29;20471;-76
2021/10/01 14:03:30;;;;;;;4.90;1.40;;;20.20;1.00;;;;;;4899967;29;20128;-77
2021/10/01 14:05:56;;;;;;;3.55;1.50;;;20.20;1.00;;;;;;4899264;29;20500;-77
2021/10/01 14:08:23;;;;;;;4.63;1.30;;;20.10;1.00;;;;;;4899669;29;20036;-76
2021/10/01 14:10:50;;;;;;;3.67;1.50;;;20.10;1.00;;;;;;4899546;29;20139;-76
2021/10/01 14:13:16;;;;;;;2.30;1.40;;;20.00;1.00;;;;;;4899864;29;20047;-76
2021/10/01 14:15:46;;;;;;;1.88;1.25;;;20.00;1.00;;;;;;4897149;29;20073;-76
2021/10/01 14:18:12;;;;;;;1.58;1.25;;;20.10;1.00;;;;;;4892680;29;20096;-76
2021/10/01 14:20:40;;;;;;;3.15;1.42;;;20.00;1.00;;;;;;4886275;29;20049;-77
2021/10/01 14:23:07;;;;;;;4.18;1.67;;;20.10;1.00;;;;;;4881240;29;20049;-75
2021/10/01 14:25:33;;;;;;;2.25;1.55;;;20.20;1.00;;;;;;4880983;29;20041;-75
2021/10/01 14:27:59;;;;;;;5.25;1.45;;;20.30;1.00;;;;;;4880188;29;20124;-75
2021/10/01 14:30:28;;;;;;;1.73;1.20;;;20.30;1.00;;;;;;4880995;29;20049;-76
2021/10/01 14:32:56;;;;;;;2.75;1.30;;;20.10;1.00;;;;;;4880945;29;20049;-76
2021/10/01 14:35:23;;;;;;;3.08;1.60;;;20.20;1.00;;;;;;4880272;29;20041;-75
2021/10/01 14:37:49;;;;;;;2.67;1.33;;;20.00;1.00;;;;;;4880221;29;20051;-75
2021/10/01 14:40:16;;;;;;;2.20;1.20;;;19.80;1.00;;;;;;4880992;29;20044;-76
2021/10/01 14:42:41;;;;;;;2.17;1.10;;;19.80;1.00;;;;;;4880396;29;20055;-76
2021/10/01 14:45:08;;;;;;;2.85;1.30;;;19.70;1.00;;;;;;4880622;29;20041;-75
2021/10/01 14:47:35;;;;;;;2.22;1.30;;;19.70;1.00;;;;;;4880382;29;20048;-76